Time;durP1;ratioP1;P1;durP2;ratioP2;P2;SDS_P1;SDS_P2;PMS_P1;PMS_P2;Temp;Humidity;BMP_temperature;BMP_pressure;BME280_temperature;BME280_humidity;BME280_pressure;Samples;Min_cycle;Max_cycle;Signal;HPM_P1;HPM_P2
2021/06/04 08:16:00;;;;;;;1304.60;999.90;;;22.80;99.90;;;;;;5130492;27;20460;-67
2021/06/04 08:18:30;;;;;;;1299.18;999.90;;;22.90;99.90;;;;;;5110964;28;20163;-67
2021/06/04 08:20:58;;;;;;;1309.03;999.90;;;23.00;99.90;;;;;;5111297;28;20175;-67
2021/06/04 08:23:32;;;;;;;1317.80;999.90;;;23.10;99.90;;;;;;5109898;28;20182;-67
2021/06/04 08:26:00;;;;;;;1335.47;999.90;;;23.10;99.90;;;;;;5111135;28;20534;-67
2021/06/04 08:28:28;;;;;;;1317.47;999.90;;;23.20;99.90;;;;;;5110544;28;20194;-67
2021/06/04 08:30:54;;;;;;;1318.38;999.90;;;23.20;99.90;;;;;;5109463;28;20174;-67
2021/06/04 08:33:27;;;;;;;1333.47;999.90;;;23.10;99.90;;;;;;5110665;28;20174;-67
2021/06/04 08:35:54;;;;;;;1331.65;999.90;;;23.00;99.90;;;;;;5110961;28;20166;-67
2021/06/04 08:38:20;;;;;;;1322.35;999.90;;;23.00;99.90;;;;;;5102581;28;20183;-67
2021/06/04 08:40:47;;;;;;;1322.95;999.90;;;22.90;99.90;;;;;;5090436;28;20195;-67
2021/06/04 08:43:30;;;;;;;1309.53;999.90;;;22.80;99.90;;;;;;5090431;28;20163;-67
2021/06/04 08:46:31;;;;;;;1339.57;999.90;;;22.80;99.90;;;;;;5090364;28;20242;-67
2021/06/04 08:49:10;;;;;;;1341.30;999.90;;;22.80;99.90;;;;;;5089065;28;20171;-67
2021/06/04 08:51:42;;;;;;;1326.55;999.90;;;22.80;99.90;;;;;;5090269;28;20627;-67
2021/06/04 08:54:29;;;;;;;1322.03;999.90;;;22.90;99.90;;;;;;5090409;28;20199;-67
2021/06/04 08:57:09;;;;;;;1321.68;999.90;;;22.80;99.90;;;;;;5090188;28;20515;-67
2021/06/04 08:59:37;;;;;;;1303.55;999.90;;;22.90;99.90;;;;;;5090071;28;20164;-67
2021/06/04 09:02:08;;;;;;;1315.30;999.90;;;22.90;99.90;;;;;;5090026;28;20301;-67
2021/06/04 09:04:55;;;;;;;1311.93;999.90;;;23.00;99.90;;;;;;5090040;28;20182;-67
2021/06/04 09:07:27;;;;;;;1307.97;999.90;;;23.00;99.90;;;;;;5088664;28;20514;-67
2021/06/04 09:09:59;;;;;;;1289.07;999.90;;;23.10;99.90;;;;;;5089874;28;20174;-67
2021/06/04 09:12:59;;;;;;;1298.28;999.90;;;23.20;99.90;;;;;;5089776;28;20174;-67
2021/06/04 09:15:29;;;;;;;1275.72;999.90;;;23.40;99.90;;;;;;5089557;28;20227;-67
2021/06/04 09:18:14;;;;;;;1279.53;999.90;;;23.60;99.90;;;;;;5089941;28;20194;-67
2021/06/04 09:20:57;;;;;;;1263.72;999.90;;;23.80;99.90;;;;;;5089777;28;20170;-67
2021/06/04 09:23:36;;;;;;;1298.35;999.90;;;24.10;99.90;;;;;;5089647;28;20307;-67
2021/06/04 09:26:02;;;;;;;1274.35;999.90;;;24.20;99.90;;;;;;5081891;28;20187;-67
2021/06/04 09:28:32;;;;;;;1296.93;999.90;;;24.30;99.90;;;;;;5076081;28;20213;-67
2021/06/04 09:31:20;;;;;;;1283.60;999.90;;;24.40;99.90;;;;;;5076018;28;20163;-67
2021/06/04 09:33:47;;;;;;;1300.78;999.90;;;24.40;99.90;;;;;;5075909;28;20195;-67
2021/06/04 09:36:19;;;;;;;1321.85;999.90;;;24.40;99.90;;;;;;5074683;28;20168;-67
2021/06/04 09:38:55;;;;;;;1305.68;999.90;;;24.50;99.90;;;;;;5075866;28;20196;-65
2021/06/04 09:41:26;;;;;;;1293.78;999.90;;;24.60;99.90;;;;;;5075807;28;20636;-65
2021/06/04 09:44:11;;;;;;;1272.07;999.90;;;24.80;99.90;;;;;;5075724;28;20199;-65
2021/06/04 09:46:51;;;;;;;1301.72;999.90;;;24.90;99.90;;;;;;5075802;28;20159;-65
2021/06/04 09:49:41;;;;;;;1280.53;999.90;;;24.90;99.90;;;;;;5075716;28;20160;-65
2021/06/04 09:52:15;;;;;;;1267.88;999.90;;;24.80;99.90;;;;;;5075550;28;20203;-67
2021/06/04 09:54:41;;;;;;;1283.20;999.90;;;24.70;99.90;;;;;;5075751;28;20196;-68
2021/06/04 09:57:08;;;;;;;1264.68;999.90;;;24.60;99.90;;;;;;5075584;28;20196;-67
2021/06/04 09:59:36;;;;;;;1306.45;999.90;;;24.60;99.90;;;;;;5075535;28;20577;-67
2021/06/04 10:02:03;;;;;;;1296.55;999.90;;;24.60;99.90;;;;;;5075490;28;20172;-68
2021/06/04 10:04:32;;;;;;;1268.38;999.90;;;24.60;99.90;;;;;;5075468;28;20191;-68
2021/06/04 10:07:03;;;;;;;1250.97;999.90;;;24.60;99.90;;;;;;5075366;28;20560;-65
2021/06/04 10:09:34;;;;;;;1290.43;999.90;;;24.60;99.90;;;;;;5075715;28;20168;-65
2021/06/04 10:12:07;;;;;;;1358.63;999.90;;;24.70;99.90;;;;;;5075321;28;20171;-66
2021/06/04 10:14:50;;;;;;;1281.93;999.90;;;25.00;99.90;;;;;;5074513;28;20215;-66
2021/06/04 10:20:44;;;;;;;1331.38;999.90;;;25.20;99.90;;;;;;5075332;28;20262;-66
2021/06/04 10:23:13;;;;;;;1309.80;999.90;;;25.30;99.90;;;;;;5075112;28;20251;-66
2021/06/04 10:25:56;;;;;;;1260.82;999.90;;;25.20;99.90;;;;;;5074929;28;20164;-66
2021/06/04 10:29:03;;;;;;;1197.10;999.90;;;25.20;99.90;;;;;;5074952;28;20168;-66
2021/06/04 10:31:36;;;;;;;1232.28;999.90;;;24.90;99.90;;;;;;4993336;28;20182;-67
2021/06/04 10:34:24;;;;;;;1208.03;999.90;;;24.80;99.90;;;;;;4993358;28;20618;-68
2021/06/04 10:36:56;;;;;;;1184.18;999.90;;;24.70;99.90;;;;;;5049086;28;20180;-68
2021/06/04 10:39:41;;;;;;;1218.30;999.90;;;24.50;99.90;;;;;;5074373;28;20184;-68
2021/06/04 10:42:15;;;;;;;1214.03;999.90;;;24.50;99.90;;;;;;5074628;28;20189;-67
2021/06/04 10:44:50;;;;;;;1191.03;999.90;;;24.50;99.90;;;;;;5074565;28;20171;-68
2021/06/04 10:47:36;;;;;;;1238.72;999.90;;;24.40;99.90;;;;;;5074524;28;20164;-68
2021/06/04 10:50:09;;;;;;;1293.00;999.90;;;24.50;99.90;;;;;;5074520;28;20190;-68
2021/06/04 10:52:50;;;;;;;1246.55;999.90;;;24.60;99.90;;;;;;5074326;28;20179;-68
2021/06/04 10:55:25;;;;;;;1269.78;999.90;;;24.80;99.90;;;;;;5074268;28;20195;-67
2021/06/04 10:58:18;;;;;;;1311.15;999.90;;;24.90;99.90;;;;;;5074354;28;20726;-66
2021/06/04 11:00:55;;;;;;;1300.95;999.90;;;25.10;99.90;;;;;;5074291;28;20164;-66
2021/06/04 11:03:31;;;;;;;1285.70;999.90;;;25.40;99.90;;;;;;5074265;28;20167;-66
2021/06/04 11:06:12;;;;;;;1284.72;999.90;;;25.60;99.90;;;;;;5072881;28;20168;-66
2021/06/04 11:08:45;;;;;;;1229.00;999.90;;;25.70;99.90;;;;;;5074119;28;20164;-66
2021/06/04 11:11:26;;;;;;;1260.65;999.90;;;25.70;99.90;;;;;;5074033;28;20159;-66
2021/06/04 11:14:01;;;;;;;1221.13;999.90;;;25.60;99.90;;;;;;5072334;28;20266;-65
2021/06/04 11:16:57;;;;;;;1200.63;999.90;;;25.60;99.90;;;;;;5073719;28;20163;-65
2021/06/04 11:19:45;;;;;;;1298.03;999.90;;;25.50;99.90;;;;;;5073870;28;20167;-67
2021/06/04 11:22:18;;;;;;;1325.78;999.90;;;25.60;99.90;;;;;;5073823;28;20198;-68
2021/06/04 11:24:57;;;;;;;1298.13;999.90;;;25.80;99.90;;;;;;5073856;28;20237;-68
2021/06/04 11:27:27;;;;;;;1272.85;999.90;;;25.80;99.90;;;;;;5073832;28;20172;-68
2021/06/04 11:29:54;;;;;;;1283.13;999.90;;;25.80;99.90;;;;;;5073733;28;20171;-68
2021/06/04 11:32:23;;;;;;;1270.60;999.90;;;25.70;99.90;;;;;;5073633;28;20182;-68
2021/06/04 11:35:10;;;;;;;1218.20;999.90;;;25.60;99.90;;;;;;5073561;28;20191;-68
2021/06/04 11:37:42;;;;;;;1236.57;999.90;;;25.50;99.90;;;;;;5073602;28;20160;-68
2021/06/04 11:40:15;;;;;;;1177.38;999.90;;;25.50;99.90;;;;;;5072135;28;20168;-68
2021/06/04 11:43:13;;;;;;;1195.18;999.90;;;25.70;99.90;;;;;;5072012;28;20643;-68
2021/06/04 11:45:41;;;;;;;1181.25;999.90;;;25.80;99.90;;;;;;5056364;28;20187;-66
2021/06/04 11:48:25;;;;;;;1129.97;999.90;;;26.00;99.90;;;;;;5072972;28;20194;-65
2021/06/04 11:51:19;;;;;;;1161.55;999.90;;;26.10;99.90;;;;;;5073404;28;20176;-66
2021/06/04 11:53:50;;;;;;;1148.03;999.90;;;26.20;99.90;;;;;;5073161;28;20283;-65
2021/06/04 11:56:38;;;;;;;1179.20;999.90;;;26.40;99.90;;;;;;5073105;28;20164;-66
2021/06/04 11:59:07;;;;;;;1157.40;999.90;;;26.50;99.90;;;;;;5073112;28;20532;-66
2021/06/04 12:01:42;;;;;;;1169.60;999.90;;;26.50;99.90;;;;;;5073212;28;20144;-65
2021/06/04 12:04:11;;;;;;;1198.90;999.90;;;26.50;99.90;;;;;;5073286;28;20248;-65
2021/06/04 12:06:49;;;;;;;1241.82;999.90;;;26.60;99.90;;;;;;5073129;28;20629;-65
2021/06/04 12:09:32;;;;;;;1249.75;999.90;;;26.80;99.90;;;;;;5073261;28;20624;-65
2021/06/04 12:12:16;;;;;;;1263.97;999.90;;;27.00;99.90;;;;;;5072570;28;20236;-66
2021/06/04 12:18:30;;;;;;;1210.50;999.90;;;27.30;99.90;;;;;;5072734;28;20178;-65
2021/06/04 12:20:55;;;;;;;1257.43;999.90;;;27.40;99.90;;;;;;5073565;28;20246;-65
2021/06/04 12:23:49;;;;;;;1220.40;999.90;;;27.40;99.90;;;;;;5071757;28;20263;-68
2021/06/04 12:26:42;;;;;;;1235.50;999.90;;;27.40;99.90;;;;;;5073016;28;20164;-68
2021/06/04 12:29:30;;;;;;;1282.95;999.90;;;27.60;99.90;;;;;;5073128;28;20496;-68
2021/06/04 12:31:59;;;;;;;1269.13;999.90;;;27.80;99.90;;;;;;5072785;28;20160;-68
2021/06/04 12:34:48;;;;;;;1151.25;999.90;;;28.00;99.90;;;;;;5072882;28;20555;-68
2021/06/04 12:40:00;;;;;;;1143.90;999.90;;;27.90;99.90;;;;;;5073013;28;20188;-68
2021/06/04 12:42:29;;;;;;;1203.78;999.90;;;27.60;99.90;;;;;;5072615;28;20172;-68
2021/06/04 12:45:01;;;;;;;1217.82;999.90;;;27.50;99.90;;;;;;5072579;28;20184;-68
2021/06/04 12:47:40;;;;;;;1158.95;999.90;;;27.60;99.90;;;;;;5072671;28;20164;-68
2021/06/04 12:50:12;;;;;;;1204.53;999.90;;;27.50;99.90;;;;;;5071628;28;20216;-68
2021/06/04 12:52:38;;;;;;;1165.90;999.90;;;27.70;99.90;;;;;;5072698;28;20169;-68
2021/06/04 12:55:17;;;;;;;1135.40;999.90;;;27.90;99.90;;;;;;5072652;28;20171;-68
2021/06/04 12:57:43;;;;;;;1143.32;999.90;;;28.00;99.90;;;;;;5072522;28;20637;-68
2021/06/04 13:00:24;;;;;;;1227.88;999.90;;;28.20;99.90;;;;;;5072685;28;20190;-67
2021/06/04 13:02:54;;;;;;;1171.22;999.90;;;28.50;99.90;;;;;;5076426;28;20168;-67
2021/06/04 13:05:22;;;;;;;1169.95;999.90;;;28.60;99.90;;;;;;5076097;28;20199;-67
2021/06/04 13:07:48;;;;;;;1187.95;999.90;;;28.50;99.90;;;;;;5076441;28;20256;-67
2021/06/04 13:10:24;;;;;;;1161.90;999.90;;;28.20;99.90;;;;;;5076267;28;20218;-67
2021/06/04 13:13:10;;;;;;;1220.43;999.90;;;27.90;99.90;;;;;;5076342;28;20556;-67
2021/06/04 13:15:36;;;;;;;1236.22;999.90;;;27.60;99.90;;;;;;5076002;28;20274;-67
2021/06/04 13:18:05;;;;;;;1248.55;999.90;;;27.40;99.90;;;;;;5076105;28;20179;-67
2021/06/04 13:20:35;;;;;;;1176.55;999.90;;;27.20;99.90;;;;;;5076090;28;20164;-67
2021/06/04 13:23:19;;;;;;;1219.97;999.90;;;26.90;99.90;;;;;;5076389;28;20676;-67
2021/06/04 13:26:01;;;;;;;1173.90;999.90;;;26.80;99.90;;;;;;5076039;28;20223;-68
2021/06/04 13:28:41;;;;;;;1115.57;999.90;;;26.80;99.90;;;;;;5075954;28;20164;-69
2021/06/04 13:31:38;;;;;;;1119.35;999.90;;;26.90;99.90;;;;;;5075814;28;20304;-69
2021/06/04 13:34:36;;;;;;;1154.97;999.90;;;27.00;99.90;;;;;;5071936;28;20195;-70
2021/06/04 13:37:06;;;;;;;1071.38;983.60;;;27.30;99.90;;;;;;5061550;28;20211;-69
2021/06/04 13:39:36;;;;;;;1040.13;956.97;;;27.50;99.90;;;;;;5075661;28;20668;-70
2021/06/04 13:42:15;;;;;;;1144.50;999.90;;;27.70;99.90;;;;;;5075865;28;20175;-69
2021/06/04 13:44:45;;;;;;;1187.18;999.90;;;28.10;99.90;;;;;;5075629;28;20191;-69
2021/06/04 13:47:17;;;;;;;1110.50;999.90;;;28.60;99.90;;;;;;5075915;28;20247;-69
2021/06/04 13:49:50;;;;;;;1052.82;964.92;;;28.90;99.90;;;;;;5075584;28;20637;-66
2021/06/04 13:52:17;;;;;;;1025.60;943.88;;;29.00;99.90;;;;;;5075465;28;20225;-66
2021/06/04 13:54:46;;;;;;;974.30;899.75;;;28.80;99.90;;;;;;5075667;28;20527;-66
2021/06/04 13:57:27;;;;;;;1142.55;999.90;;;28.80;99.90;;;;;;5074278;28;20255;-66
2021/06/04 14:00:14;;;;;;;1241.07;999.90;;;28.90;99.90;;;;;;5075442;28;20706;-67
2021/06/04 14:02:46;;;;;;;1091.72;994.53;;;29.40;99.90;;;;;;5075472;28;20190;-67
2021/06/04 14:05:34;;;;;;;1152.47;999.90;;;29.60;99.90;;;;;;5074108;28;20643;-67
2021/06/04 14:08:09;;;;;;;1120.65;999.90;;;29.30;99.90;;;;;;5075250;28;20183;-66
2021/06/04 14:10:47;;;;;;;1148.75;999.90;;;29.00;99.90;;;;;;5075270;28;20163;-66
2021/06/04 14:13:29;;;;;;;1160.10;999.90;;;28.70;99.90;;;;;;5073882;28;20248;-66
2021/06/04 14:16:04;;;;;;;1266.15;999.90;;;28.30;99.90;;;;;;5075264;28;20176;-66
2021/06/04 14:18:51;;;;;;;1237.25;999.90;;;28.10;99.90;;;;;;5075218;28;20725;-69
2021/06/04 14:21:22;;;;;;;1348.15;999.90;;;27.80;99.90;;;;;;5074933;28;20164;-69
2021/06/04 14:24:04;;;;;;;1340.10;999.90;;;27.50;99.90;;;;;;5075014;28;20248;-69
2021/06/04 14:27:05;;;;;;;1387.57;999.90;;;27.30;99.90;;;;;;5075050;28;20270;-69
2021/06/04 14:29:59;;;;;;;1433.95;999.90;;;27.20;99.90;;;;;;5075023;28;20175;-69
2021/06/04 14:32:32;;;;;;;1433.38;999.90;;;27.20;99.90;;;;;;5074921;28;20630;-69
2021/06/04 14:35:05;;;;;;;1366.20;999.90;;;27.20;99.90;;;;;;5074895;28;20172;-69
2021/06/04 14:37:38;;;;;;;1401.88;999.90;;;27.10;99.90;;;;;;5074357;28;20183;-69
2021/06/04 14:40:16;;;;;;;1395.80;999.90;;;26.90;99.90;;;;;;5074536;28;20237;-69
2021/06/04 14:42:41;;;;;;;1370.75;999.90;;;26.60;99.90;;;;;;5074671;28;20222;-69
2021/06/04 14:45:08;;;;;;;1372.88;999.90;;;26.40;99.90;;;;;;5074455;28;20191;-68
2021/06/04 14:47:37;;;;;;;1450.15;999.90;;;26.10;99.90;;;;;;5074637;28;20221;-72
2021/06/04 14:50:07;;;;;;;1421.10;999.90;;;25.90;99.90;;;;;;5074479;28;20171;-72
2021/06/04 14:52:33;;;;;;;1370.78;999.90;;;25.70;99.90;;;;;;5073187;28;20171;-73
2021/06/04 14:54:59;;;;;;;1411.80;999.90;;;25.50;99.90;;;;;;5074388;28;20648;-79
2021/06/04 14:57:24;;;;;;;1370.10;999.90;;;25.30;99.90;;;;;;5074285;28;20233;-80
2021/06/04 14:59:52;;;;;;;1938.20;999.90;;;25.20;99.90;;;;;;5074328;28;20172;-75
2021/06/04 15:02:24;;;;;;;1999.90;999.90;;;25.00;99.90;;;;;;5073633;28;20179;-76
2021/06/04 15:56:16;;;;;;;889.38;829.70;;;19.20;99.90;;;;;;5147856;27;20529;-71
2021/06/04 15:58:42;;;;;;;1047.93;967.63;;;19.30;99.90;;;;;;5131732;27;20265;-72
2021/06/04 16:01:07;;;;;;;1106.68;999.90;;;19.40;99.90;;;;;;5131599;28;20675;-73
2021/06/04 16:03:34;;;;;;;1131.70;999.90;;;19.40;99.90;;;;;;5131624;27;20170;-72
2021/06/04 16:06:01;;;;;;;1160.45;999.90;;;19.50;99.90;;;;;;5131524;27;20174;-73
2021/06/04 16:08:27;;;;;;;1308.82;999.90;;;19.60;99.90;;;;;;5131457;27;20679;-73
2021/06/04 16:10:53;;;;;;;1861.07;999.90;;;19.70;99.90;;;;;;5131916;28;20257;-74
2021/06/04 16:13:20;;;;;;;1271.15;999.90;;;19.70;99.90;;;;;;5131435;28;20173;-69
2021/06/04 16:15:47;;;;;;;1317.28;999.90;;;19.70;99.90;;;;;;5131274;28;20201;-72
2021/06/04 16:18:15;;;;;;;1229.82;999.90;;;19.80;99.90;;;;;;5131417;27;20166;-72
2021/06/04 16:20:42;;;;;;;1155.95;999.90;;;19.80;99.90;;;;;;5131148;27;20162;-72
2021/06/04 16:23:10;;;;;;;1144.13;999.90;;;19.80;99.90;;;;;;5131057;27;20197;-73
2021/06/04 16:25:42;;;;;;;1153.60;999.90;;;19.80;99.90;;;;;;5131097;27;20628;-73
2021/06/04 16:28:08;;;;;;;1195.90;999.90;;;19.80;99.90;;;;;;5131127;27;20166;-73
2021/06/04 16:30:35;;;;;;;1256.00;999.90;;;19.90;99.90;;;;;;5131056;28;20162;-72
2021/06/04 16:33:01;;;;;;;1181.72;999.90;;;19.80;99.90;;;;;;5131007;27;20190;-73
2021/06/04 16:35:31;;;;;;;1168.07;999.90;;;19.90;99.90;;;;;;5130878;27;20216;-71
2021/06/04 16:37:57;;;;;;;1152.20;999.90;;;19.90;99.90;;;;;;5131030;28;20162;-72
2021/06/04 16:40:24;;;;;;;1141.30;999.90;;;19.80;99.90;;;;;;5130589;27;20170;-72
2021/06/04 16:42:49;;;;;;;1167.45;999.90;;;19.90;99.90;;;;;;5130676;27;20627;-72
2021/06/04 16:45:16;;;;;;;1137.68;999.90;;;19.70;99.90;;;;;;5130756;28;20181;-71
2021/06/04 16:47:41;;;;;;;1121.93;999.90;;;19.90;99.90;;;;;;5130778;27;20162;-71
2021/06/04 16:50:09;;;;;;;1114.35;999.90;;;19.80;99.90;;;;;;5130647;28;20526;-71
2021/06/04 16:52:35;;;;;;;1108.43;999.90;;;19.80;99.90;;;;;;5130580;28;20176;-71
2021/06/04 16:55:01;;;;;;;1107.97;999.90;;;19.70;99.90;;;;;;5130171;28;20221;-69
2021/06/04 16:57:26;;;;;;;1128.88;999.90;;;19.70;99.90;;;;;;5129236;27;20519;-69
2021/06/04 16:59:52;;;;;;;1124.28;999.90;;;19.70;99.90;;;;;;5130233;27;20659;-69
2021/06/04 17:02:18;;;;;;;1100.93;999.90;;;19.50;99.90;;;;;;5130345;27;20245;-69
